sensor_id;sensor_type;location;lat;lon;timestamp;pressure;altitude;pressure_sealevel;temperature;humidity
70468;BME280;57934;51.532;7.684;2023-01-29T00:01:46;101764.06;;;-3.37;94.43
70468;BME280;57934;51.532;7.684;2023-01-29T00:04:12;101760.47;;;-3.34;94.21
70468;BME280;57934;51.532;7.684;2023-01-29T00:06:39;101752.88;;;-3.37;94.04
70468;BME280;57934;51.532;7.684;2023-01-29T00:09:05;101755.63;;;-3.40;94.27
70468;BME280;57934;51.532;7.684;2023-01-29T00:11:30;101750.47;;;-3.40;94.21
70468;BME280;57934;51.532;7.684;2023-01-29T00:13:57;101750.50;;;-3.42;94.00
70468;BME280;57934;51.532;7.684;2023-01-29T00:16:23;101742.72;;;-3.40;94.01
70468;BME280;57934;51.532;7.684;2023-01-29T00:18:49;101735.00;;;-3.40;94.11
70468;BME280;57934;51.532;7.684;2023-01-29T00:21:17;101736.56;;;-3.38;93.75
70468;BME280;57934;51.532;7.684;2023-01-29T00:23:45;101742.78;;;-3.42;93.79
70468;BME280;57934;51.532;7.684;2023-01-29T00:26:11;101739.44;;;-3.44;94.16
70468;BME280;57934;51.532;7.684;2023-01-29T00:28:42;101742.72;;;-3.40;94.48
70468;BME280;57934;51.532;7.684;2023-01-29T00:31:10;101744.59;;;-3.44;94.05
70468;BME280;57934;51.532;7.684;2023-01-29T00:33:36;101736.78;;;-3.42;94.46
70468;BME280;57934;51.532;7.684;2023-01-29T00:36:07;101734.13;;;-3.41;94.10
70468;BME280;57934;51.532;7.684;2023-01-29T00:38:35;101737.03;;;-3.48;93.92
70468;BME280;57934;51.532;7.684;2023-01-29T00:41:10;101740.53;;;-3.49;93.99
70468;BME280;57934;51.532;7.684;2023-01-29T00:43:55;101740.31;;;-3.45;94.17
70468;BME280;57934;51.532;7.684;2023-01-29T00:46:40;101731.97;;;-3.50;94.20
70468;BME280;57934;51.532;7.684;2023-01-29T00:49:06;101731.88;;;-3.48;94.09
70468;BME280;57934;51.532;7.684;2023-01-29T00:51:33;101733.75;;;-3.52;94.19
70468;BME280;57934;51.532;7.684;2023-01-29T00:53:59;101734.88;;;-3.57;93.99
70468;BME280;57934;51.532;7.684;2023-01-29T00:56:28;101740.78;;;-3.55;94.17
70468;BME280;57934;51.532;7.684;2023-01-29T00:58:54;101742.88;;;-3.64;94.21
70468;BME280;57934;51.532;7.684;2023-01-29T01:01:22;101743.63;;;-3.62;94.33
70468;BME280;57934;51.532;7.684;2023-01-29T01:04:08;101748.06;;;-3.65;94.81
70468;BME280;57934;51.532;7.684;2023-01-29T01:06:39;101742.16;;;-3.67;94.40
70468;BME280;57934;51.532;7.684;2023-01-29T01:09:06;101742.28;;;-3.70;94.79
70468;BME280;57934;51.532;7.684;2023-01-29T01:11:52;101744.78;;;-3.69;94.24
70468;BME280;57934;51.532;7.684;2023-01-29T01:14:18;101749.09;;;-3.69;94.42
70468;BME280;57934;51.532;7.684;2023-01-29T01:16:45;101746.63;;;-3.71;94.88
70468;BME280;57934;51.532;7.684;2023-01-29T01:19:12;101747.56;;;-3.73;94.71
70468;BME280;57934;51.532;7.684;2023-01-29T01:21:38;101745.78;;;-3.71;94.62
70468;BME280;57934;51.532;7.684;2023-01-29T01:24:05;101753.50;;;-3.71;94.56
70468;BME280;57934;51.532;7.684;2023-01-29T01:26:31;101740.75;;;-3.74;94.77
70468;BME280;57934;51.532;7.684;2023-01-29T01:28:58;101745.06;;;-3.75;94.85
70468;BME280;57934;51.532;7.684;2023-01-29T01:31:24;101724.25;;;-3.70;94.58
70468;BME280;57934;51.532;7.684;2023-01-29T01:33:50;101719.94;;;-3.70;94.34
70468;BME280;57934;51.532;7.684;2023-01-29T01:36:18;101714.03;;;-3.72;94.60
70468;BME280;57934;51.532;7.684;2023-01-29T01:38:44;101700.34;;;-3.74;94.61
70468;BME280;57934;51.532;7.684;2023-01-29T01:41:13;101706.47;;;-3.76;94.52
70468;BME280;57934;51.532;7.684;2023-01-29T01:43:50;101695.97;;;-3.72;94.41
70468;BME280;57934;51.532;7.684;2023-01-29T01:46:17;101688.31;;;-3.73;94.03
70468;BME280;57934;51.532;7.684;2023-01-29T01:48:45;101694.38;;;-3.74;94.25
70468;BME280;57934;51.532;7.684;2023-01-29T01:51:13;101692.53;;;-3.72;94.32
70468;BME280;57934;51.532;7.684;2023-01-29T01:53:53;101699.09;;;-3.65;94.62
70468;BME280;57934;51.532;7.684;2023-01-29T01:56:27;101699.06;;;-3.64;93.82
70468;BME280;57934;51.532;7.684;2023-01-29T01:59:05;101701.75;;;-3.67;94.25
70468;BME280;57934;51.532;7.684;2023-01-29T02:01:32;101712.84;;;-3.65;93.96
70468;BME280;57934;51.532;7.684;2023-01-29T02:04:05;101710.41;;;-3.68;93.65
70468;BME280;57934;51.532;7.684;2023-01-29T02:06:52;101709.38;;;-3.64;93.88
70468;BME280;57934;51.532;7.684;2023-01-29T02:09:45;101713.16;;;-3.72;94.01
70468;BME280;57934;51.532;7.684;2023-01-29T02:12:15;101715.81;;;-3.74;94.03
70468;BME280;57934;51.532;7.684;2023-01-29T02:14:42;101709.88;;;-3.76;94.35
70468;BME280;57934;51.532;7.684;2023-01-29T02:17:16;101712.78;;;-3.84;93.83
70468;BME280;57934;51.532;7.684;2023-01-29T02:22:26;101713.56;;;-3.81;93.88
70468;BME280;57934;51.532;7.684;2023-01-29T02:25:02;101716.19;;;-3.83;94.27
70468;BME280;57934;51.532;7.684;2023-01-29T02:28:02;101715.94;;;-3.77;94.38
70468;BME280;57934;51.532;7.684;2023-01-29T02:35:58;101720.84;;;-3.71;93.77
70468;BME280;57934;51.532;7.684;2023-01-29T02:38:52;101722.75;;;-3.76;93.76
70468;BME280;57934;51.532;7.684;2023-01-29T02:41:27;101714.06;;;-3.73;93.94
70468;BME280;57934;51.532;7.684;2023-01-29T02:44:04;101719.22;;;-3.73;93.97
70468;BME280;57934;51.532;7.684;2023-01-29T02:46:39;101719.47;;;-3.79;93.84
70468;BME280;57934;51.532;7.684;2023-01-29T02:49:14;101727.03;;;-3.75;93.91
70468;BME280;57934;51.532;7.684;2023-01-29T02:54:45;101731.19;;;-3.72;93.74
70468;BME280;57934;51.532;7.684;2023-01-29T02:57:25;101726.03;;;-3.72;93.94
70468;BME280;57934;51.532;7.684;2023-01-29T03:03:06;101735.13;;;-3.64;93.55
70468;BME280;57934;51.532;7.684;2023-01-29T03:05:44;101732.09;;;-3.53;93.81
70468;BME280;57934;51.532;7.684;2023-01-29T03:08:21;101728.44;;;-3.47;93.85
70468;BME280;57934;51.532;7.684;2023-01-29T03:10:57;101729.66;;;-3.37;93.60
70468;BME280;57934;51.532;7.684;2023-01-29T03:13:40;101718.25;;;-3.31;92.95
70468;BME280;57934;51.532;7.684;2023-01-29T03:16:20;101725.09;;;-3.30;92.88
70468;BME280;57934;51.532;7.684;2023-01-29T03:18:54;101724.25;;;-3.31;92.92
70468;BME280;57934;51.532;7.684;2023-01-29T03:21:27;101725.16;;;-3.32;92.72
70468;BME280;57934;51.532;7.684;2023-01-29T03:24:14;101717.56;;;-3.35;93.04
70468;BME280;57934;51.532;7.684;2023-01-29T03:27:03;101713.94;;;-3.31;93.19
70468;BME280;57934;51.532;7.684;2023-01-29T03:29:52;101711.34;;;-3.31;92.49
70468;BME280;57934;51.532;7.684;2023-01-29T03:32:54;101711.44;;;-3.32;92.92
70468;BME280;57934;51.532;7.684;2023-01-29T03:35:27;101720.91;;;-3.33;93.12
70468;BME280;57934;51.532;7.684;2023-01-29T03:38:04;101713.81;;;-3.28;92.57
70468;BME280;57934;51.532;7.684;2023-01-29T03:40:45;101718.03;;;-3.27;92.20
70468;BME280;57934;51.532;7.684;2023-01-29T03:43:38;101715.47;;;-3.27;92.28
70468;BME280;57934;51.532;7.684;2023-01-29T03:46:21;101709.06;;;-3.18;92.41
70468;BME280;57934;51.532;7.684;2023-01-29T03:49:01;101708.09;;;-3.16;91.98
70468;BME280;57934;51.532;7.684;2023-01-29T03:51:55;101699.31;;;-3.12;91.39
70468;BME280;57934;51.532;7.684;2023-01-29T03:55:06;101691.06;;;-3.20;92.12
70468;BME280;57934;51.532;7.684;2023-01-29T03:57:49;101679.19;;;-3.22;91.58
70468;BME280;57934;51.532;7.684;2023-01-29T04:00:44;101689.97;;;-3.33;92.35
70468;BME280;57934;51.532;7.684;2023-01-29T04:03:20;101691.63;;;-3.32;92.18
70468;BME280;57934;51.532;7.684;2023-01-29T04:05:54;101697.84;;;-3.36;92.15
70468;BME280;57934;51.532;7.684;2023-01-29T04:08:29;101690.03;;;-3.34;92.23
70468;BME280;57934;51.532;7.684;2023-01-29T04:11:03;101686.47;;;-3.32;92.07
70468;BME280;57934;51.532;7.684;2023-01-29T04:13:32;101689.06;;;-3.32;92.31
70468;BME280;57934;51.532;7.684;2023-01-29T04:16:00;101683.97;;;-3.33;91.93
70468;BME280;57934;51.532;7.684;2023-01-29T04:18:47;101680.91;;;-3.23;91.76
70468;BME280;57934;51.532;7.684;2023-01-29T04:21:15;101684.25;;;-3.21;91.33
70468;BME280;57934;51.532;7.684;2023-01-29T04:23:42;101677.34;;;-3.20;91.33
70468;BME280;57934;51.532;7.684;2023-01-29T04:26:23;101673.03;;;-3.20;90.71
70468;BME280;57934;51.532;7.684;2023-01-29T04:32:15;101676.09;;;-3.12;91.56
70468;BME280;57934;51.532;7.684;2023-01-29T04:37:26;101672.75;;;-3.14;91.06
70468;BME280;57934;51.532;7.684;2023-01-29T04:42:36;101658.38;;;-3.00;90.31
70468;BME280;57934;51.532;7.684;2023-01-29T04:45:19;101645.69;;;-3.05;90.19
70468;BME280;57934;51.532;7.684;2023-01-29T04:48:05;101648.41;;;-3.08;89.99
70468;BME280;57934;51.532;7.684;2023-01-29T04:56:12;101631.66;;;-2.99;90.41
70468;BME280;57934;51.532;7.684;2023-01-29T04:58:46;101644.66;;;-3.01;89.99
70468;BME280;57934;51.532;7.684;2023-01-29T05:01:16;101639.25;;;-2.96;90.36
70468;BME280;57934;51.532;7.684;2023-01-29T05:03:46;101639.22;;;-2.95;90.14
70468;BME280;57934;51.532;7.684;2023-01-29T05:06:13;101630.81;;;-3.00;90.72
70468;BME280;57934;51.532;7.684;2023-01-29T05:08:40;101623.91;;;-2.99;90.70
70468;BME280;57934;51.532;7.684;2023-01-29T05:11:07;101611.66;;;-2.94;90.53
70468;BME280;57934;51.532;7.684;2023-01-29T05:13:37;101602.91;;;-2.92;90.14
70468;BME280;57934;51.532;7.684;2023-01-29T05:16:17;101605.50;;;-2.92;90.24
70468;BME280;57934;51.532;7.684;2023-01-29T05:18:45;101609.63;;;-2.88;90.84
70468;BME280;57934;51.532;7.684;2023-01-29T05:21:11;101605.28;;;-2.87;90.70
70468;BME280;57934;51.532;7.684;2023-01-29T05:23:37;101596.63;;;-2.86;90.58
70468;BME280;57934;51.532;7.684;2023-01-29T05:26:04;101587.69;;;-2.79;90.46
70468;BME280;57934;51.532;7.684;2023-01-29T05:28:30;101585.00;;;-2.77;89.66
70468;BME280;57934;51.532;7.684;2023-01-29T05:30:56;101591.03;;;-2.77;90.02
70468;BME280;57934;51.532;7.684;2023-01-29T05:33:25;101593.38;;;-2.72;90.42
70468;BME280;57934;51.532;7.684;2023-01-29T05:35:51;101588.91;;;-2.69;90.17
70468;BME280;57934;51.532;7.684;2023-01-29T05:38:18;101600.59;;;-2.61;89.35
70468;BME280;57934;51.532;7.684;2023-01-29T05:40:44;101593.63;;;-2.59;89.32
70468;BME280;57934;51.532;7.684;2023-01-29T05:43:16;101589.28;;;-2.59;89.89
70468;BME280;57934;51.532;7.684;2023-01-29T05:45:42;101595.13;;;-2.55;89.63
70468;BME280;57934;51.532;7.684;2023-01-29T05:48:08;101601.28;;;-2.58;89.43
70468;BME280;57934;51.532;7.684;2023-01-29T05:50:34;101607.91;;;-2.52;89.70
70468;BME280;57934;51.532;7.684;2023-01-29T05:53:01;101613.41;;;-2.43;89.71
70468;BME280;57934;51.532;7.684;2023-01-29T05:55:28;101621.34;;;-2.46;89.19
70468;BME280;57934;51.532;7.684;2023-01-29T05:57:54;101623.91;;;-2.46;89.50
70468;BME280;57934;51.532;7.684;2023-01-29T06:00:20;101628.47;;;-2.51;89.74
70468;BME280;57934;51.532;7.684;2023-01-29T06:02:47;101634.94;;;-2.42;89.71
70468;BME280;57934;51.532;7.684;2023-01-29T06:05:13;101635.00;;;-2.44;89.51
70468;BME280;57934;51.532;7.684;2023-01-29T06:07:39;101646.00;;;-2.40;89.55
70468;BME280;57934;51.532;7.684;2023-01-29T06:10:15;101645.78;;;-2.35;89.64
70468;BME280;57934;51.532;7.684;2023-01-29T06:12:42;101648.28;;;-2.34;89.58
70468;BME280;57934;51.532;7.684;2023-01-29T06:15:08;101645.41;;;-2.28;89.25
70468;BME280;57934;51.532;7.684;2023-01-29T06:17:35;101649.72;;;-2.28;88.94
70468;BME280;57934;51.532;7.684;2023-01-29T06:20:02;101655.56;;;-2.25;88.96
70468;BME280;57934;51.532;7.684;2023-01-29T06:22:29;101654.69;;;-2.24;88.78
70468;BME280;57934;51.532;7.684;2023-01-29T06:24:55;101656.34;;;-2.23;88.79
70468;BME280;57934;51.532;7.684;2023-01-29T06:27:21;101656.25;;;-2.21;89.53
70468;BME280;57934;51.532;7.684;2023-01-29T06:29:47;101654.44;;;-2.19;89.49
70468;BME280;57934;51.532;7.684;2023-01-29T06:32:12;101652.81;;;-2.22;89.26
70468;BME280;57934;51.532;7.684;2023-01-29T06:34:38;101656.88;;;-2.16;89.67
70468;BME280;57934;51.532;7.684;2023-01-29T06:37:04;101648.13;;;-2.13;89.04
70468;BME280;57934;51.532;7.684;2023-01-29T06:39:30;101637.66;;;-2.10;89.02
70468;BME280;57934;51.532;7.684;2023-01-29T06:41:56;101645.41;;;-2.10;88.59
70468;BME280;57934;51.532;7.684;2023-01-29T06:44:22;101651.31;;;-2.08;89.19
70468;BME280;57934;51.532;7.684;2023-01-29T06:46:48;101647.13;;;-2.11;88.77
70468;BME280;57934;51.532;7.684;2023-01-29T06:49:14;101654.19;;;-2.14;88.31
70468;BME280;57934;51.532;7.684;2023-01-29T06:51:40;101648.03;;;-2.12;88.90
70468;BME280;57934;51.532;7.684;2023-01-29T06:54:08;101653.88;;;-2.08;89.22
70468;BME280;57934;51.532;7.684;2023-01-29T06:56:34;101659.06;;;-2.08;89.20
70468;BME280;57934;51.532;7.684;2023-01-29T06:59:00;101655.66;;;-2.09;88.42
70468;BME280;57934;51.532;7.684;2023-01-29T07:01:26;101663.97;;;-2.04;89.16
70468;BME280;57934;51.532;7.684;2023-01-29T07:03:52;101657.09;;;-2.03;89.04
70468;BME280;57934;51.532;7.684;2023-01-29T07:06:19;101656.31;;;-2.05;89.11
70468;BME280;57934;51.532;7.684;2023-01-29T07:08:45;101657.97;;;-2.04;88.53
70468;BME280;57934;51.532;7.684;2023-01-29T07:11:11;101655.00;;;-1.97;88.21
70468;BME280;57934;51.532;7.684;2023-01-29T07:13:37;101657.38;;;-1.92;88.38
70468;BME280;57934;51.532;7.684;2023-01-29T07:16:04;101656.59;;;-1.94;88.52
70468;BME280;57934;51.532;7.684;2023-01-29T07:18:31;101650.38;;;-1.90;88.20
70468;BME280;57934;51.532;7.684;2023-01-29T07:20:57;101649.63;;;-1.92;88.60
70468;BME280;57934;51.532;7.684;2023-01-29T07:23:23;101651.38;;;-1.93;88.48
70468;BME280;57934;51.532;7.684;2023-01-29T07:25:50;101659.03;;;-1.91;88.42
70468;BME280;57934;51.532;7.684;2023-01-29T07:28:17;101650.88;;;-1.83;88.11
70468;BME280;57934;51.532;7.684;2023-01-29T07:30:43;101636.06;;;-1.80;88.36
70468;BME280;57934;51.532;7.684;2023-01-29T07:33:10;101639.81;;;-1.85;88.04
70468;BME280;57934;51.532;7.684;2023-01-29T07:35:41;101635.63;;;-1.88;88.28
70468;BME280;57934;51.532;7.684;2023-01-29T07:38:09;101630.34;;;-1.86;88.35
70468;BME280;57934;51.532;7.684;2023-01-29T07:40:35;101634.69;;;-1.87;88.54
70468;BME280;57934;51.532;7.684;2023-01-29T07:43:04;101639.25;;;-1.75;88.32
70468;BME280;57934;51.532;7.684;2023-01-29T07:45:34;101634.75;;;-1.71;87.84
70468;BME280;57934;51.532;7.684;2023-01-29T07:48:01;101637.81;;;-1.80;87.93
70468;BME280;57934;51.532;7.684;2023-01-29T07:50:30;101644.25;;;-1.72;88.16
70468;BME280;57934;51.532;7.684;2023-01-29T07:52:57;101642.41;;;-1.70;87.63
70468;BME280;57934;51.532;7.684;2023-01-29T07:55:23;101630.31;;;-1.69;88.16
70468;BME280;57934;51.532;7.684;2023-01-29T08:00:22;101628.91;;;-1.59;87.48
70468;BME280;57934;51.532;7.684;2023-01-29T08:02:49;101617.69;;;-1.58;87.82
70468;BME280;57934;51.532;7.684;2023-01-29T08:05:15;101616.81;;;-1.58;88.15
70468;BME280;57934;51.532;7.684;2023-01-29T08:07:41;101617.59;;;-1.56;88.38
70468;BME280;57934;51.532;7.684;2023-01-29T08:10:08;101612.16;;;-1.52;88.28
70468;BME280;57934;51.532;7.684;2023-01-29T08:12:34;101603.72;;;-1.55;87.86
70468;BME280;57934;51.532;7.684;2023-01-29T08:15:00;101608.00;;;-1.54;88.21
70468;BME280;57934;51.532;7.684;2023-01-29T08:17:26;101596.97;;;-1.42;88.03
70468;BME280;57934;51.532;7.684;2023-01-29T08:19:51;101589.97;;;-1.40;88.38
70468;BME280;57934;51.532;7.684;2023-01-29T08:22:17;101603.06;;;-1.27;87.46
70468;BME280;57934;51.532;7.684;2023-01-29T08:24:43;101610.09;;;-1.29;87.48
70468;BME280;57934;51.532;7.684;2023-01-29T08:27:10;101616.84;;;-1.27;87.49
70468;BME280;57934;51.532;7.684;2023-01-29T08:29:36;101620.19;;;-1.25;87.23
70468;BME280;57934;51.532;7.684;2023-01-29T08:32:02;101623.53;;;-1.23;86.93
70468;BME280;57934;51.532;7.684;2023-01-29T08:34:28;101623.84;;;-1.29;87.62
70468;BME280;57934;51.532;7.684;2023-01-29T08:36:53;101618.84;;;-1.32;87.37
70468;BME280;57934;51.532;7.684;2023-01-29T08:39:19;101623.94;;;-1.30;87.56
70468;BME280;57934;51.532;7.684;2023-01-29T08:41:45;101614.34;;;-1.28;87.27
70468;BME280;57934;51.532;7.684;2023-01-29T08:44:11;101608.84;;;-1.22;87.26
70468;BME280;57934;51.532;7.684;2023-01-29T08:46:37;101589.63;;;-1.18;87.10
70468;BME280;57934;51.532;7.684;2023-01-29T08:49:05;101580.88;;;-1.15;86.75
70468;BME280;57934;51.532;7.684;2023-01-29T08:51:33;101567.00;;;-1.14;86.79
70468;BME280;57934;51.532;7.684;2023-01-29T08:53:59;101580.88;;;-1.15;87.07
70468;BME280;57934;51.532;7.684;2023-01-29T08:56:25;101585.03;;;-1.13;87.12
70468;BME280;57934;51.532;7.684;2023-01-29T08:58:51;101582.50;;;-0.99;87.00
70468;BME280;57934;51.532;7.684;2023-01-29T09:01:16;101583.91;;;-0.93;86.51
70468;BME280;57934;51.532;7.684;2023-01-29T09:03:42;101576.16;;;-0.93;86.38
70468;BME280;57934;51.532;7.684;2023-01-29T09:06:11;101571.53;;;-0.88;86.39
70468;BME280;57934;51.532;7.684;2023-01-29T09:08:38;101562.03;;;-0.87;86.33
70468;BME280;57934;51.532;7.684;2023-01-29T09:11:04;101548.72;;;-0.81;86.02
70468;BME280;57934;51.532;7.684;2023-01-29T09:13:31;101559.09;;;-0.67;86.27
70468;BME280;57934;51.532;7.684;2023-01-29T09:16:01;101558.41;;;-0.55;85.78
70468;BME280;57934;51.532;7.684;2023-01-29T09:18:28;101562.47;;;-0.51;85.08
70468;BME280;57934;51.532;7.684;2023-01-29T09:20:54;101561.47;;;-0.48;84.83
70468;BME280;57934;51.532;7.684;2023-01-29T09:23:21;101562.84;;;-0.42;84.86
70468;BME280;57934;51.532;7.684;2023-01-29T09:25:47;101548.72;;;-0.37;84.40
70468;BME280;57934;51.532;7.684;2023-01-29T09:28:13;101556.69;;;-0.26;84.22
70468;BME280;57934;51.532;7.684;2023-01-29T09:30:39;101555.38;;;-0.18;83.70
70468;BME280;57934;51.532;7.684;2023-01-29T09:33:06;101560.03;;;-0.09;83.43
70468;BME280;57934;51.532;7.684;2023-01-29T09:35:32;101556.50;;;0.06;83.19
70468;BME280;57934;51.532;7.684;2023-01-29T09:37:58;101549.16;;;0.27;82.05
70468;BME280;57934;51.532;7.684;2023-01-29T09:40:26;101550.50;;;0.47;81.41
70468;BME280;57934;51.532;7.684;2023-01-29T09:43:06;101542.91;;;0.44;80.81
70468;BME280;57934;51.532;7.684;2023-01-29T09:45:35;101534.63;;;0.52;80.49
70468;BME280;57934;51.532;7.684;2023-01-29T09:48:07;101546.28;;;0.59;79.93
70468;BME280;57934;51.532;7.684;2023-01-29T09:50:38;101539.06;;;0.64;80.40
70468;BME280;57934;51.532;7.684;2023-01-29T09:53:19;101535.59;;;0.51;80.32
70468;BME280;57934;51.532;7.684;2023-01-29T09:55:53;101542.16;;;0.42;80.78
70468;BME280;57934;51.532;7.684;2023-01-29T09:58:27;101536.97;;;0.42;80.78
70468;BME280;57934;51.532;7.684;2023-01-29T10:06:49;101541.97;;;0.45;80.64
70468;BME280;57934;51.532;7.684;2023-01-29T10:15:05;101553.81;;;0.63;79.88
70468;BME280;57934;51.532;7.684;2023-01-29T10:23:01;101550.31;;;0.77;79.06
70468;BME280;57934;51.532;7.684;2023-01-29T10:25:30;101545.81;;;0.66;79.70
70468;BME280;57934;51.532;7.684;2023-01-29T10:27:58;101548.47;;;0.79;80.14
70468;BME280;57934;51.532;7.684;2023-01-29T10:30:36;101540.88;;;0.76;79.43
70468;BME280;57934;51.532;7.684;2023-01-29T10:33:05;101546.41;;;0.84;79.14
70468;BME280;57934;51.532;7.684;2023-01-29T10:35:43;101540.09;;;0.88;79.31
70468;BME280;57934;51.532;7.684;2023-01-29T10:38:30;101534.38;;;0.96;78.92
70468;BME280;57934;51.532;7.684;2023-01-29T10:43:47;101519.94;;;0.92;78.20
70468;BME280;57934;51.532;7.684;2023-01-29T10:48:47;101503.69;;;0.76;78.94
70468;BME280;57934;51.532;7.684;2023-01-29T10:51:22;101502.03;;;0.75;79.76
70468;BME280;57934;51.532;7.684;2023-01-29T10:54:14;101496.16;;;0.85;79.85
70468;BME280;57934;51.532;7.684;2023-01-29T11:00:21;101493.78;;;1.08;78.84
70468;BME280;57934;51.532;7.684;2023-01-29T11:02:50;101488.19;;;1.14;78.57
70468;BME280;57934;51.532;7.684;2023-01-29T11:05:28;101488.09;;;1.15;78.03
70468;BME280;57934;51.532;7.684;2023-01-29T11:08:02;101484.38;;;1.19;78.21
70468;BME280;57934;51.532;7.684;2023-01-29T11:10:32;101481.84;;;1.18;78.11
70468;BME280;57934;51.532;7.684;2023-01-29T11:13:02;101487.38;;;1.13;78.00
70468;BME280;57934;51.532;7.684;2023-01-29T11:15:31;101488.09;;;1.15;77.87
70468;BME280;57934;51.532;7.684;2023-01-29T11:18:12;101488.00;;;1.17;78.04
70468;BME280;57934;51.532;7.684;2023-01-29T11:20:42;101485.59;;;1.14;78.27
70468;BME280;57934;51.532;7.684;2023-01-29T11:23:24;101478.53;;;1.03;78.69
70468;BME280;57934;51.532;7.684;2023-01-29T11:25:52;101469.25;;;0.86;78.58
70468;BME280;57934;51.532;7.684;2023-01-29T11:28:35;101461.47;;;0.86;78.87
70468;BME280;57934;51.532;7.684;2023-01-29T11:31:01;101460.75;;;0.84;79.17
70468;BME280;57934;51.532;7.684;2023-01-29T11:33:27;101453.78;;;0.85;78.96
70468;BME280;57934;51.532;7.684;2023-01-29T11:35:53;101448.91;;;0.93;78.98
70468;BME280;57934;51.532;7.684;2023-01-29T11:38:26;101446.41;;;1.04;78.53
70468;BME280;57934;51.532;7.684;2023-01-29T11:41:04;101436.44;;;0.98;78.41
70468;BME280;57934;51.532;7.684;2023-01-29T11:43:32;101429.59;;;1.10;78.86
70468;BME280;57934;51.532;7.684;2023-01-29T11:46:03;101432.81;;;1.13;78.17
70468;BME280;57934;51.532;7.684;2023-01-29T11:48:40;101427.63;;;1.13;78.08
70468;BME280;57934;51.532;7.684;2023-01-29T11:51:10;101428.25;;;1.04;78.30
70468;BME280;57934;51.532;7.684;2023-01-29T11:53:39;101422.97;;;1.06;78.78
70468;BME280;57934;51.532;7.684;2023-01-29T11:58:48;101400.28;;;1.08;78.25
70468;BME280;57934;51.532;7.684;2023-01-29T12:01:21;101393.44;;;1.07;78.21
70468;BME280;57934;51.532;7.684;2023-01-29T12:03:50;101395.03;;;1.09;78.21
70468;BME280;57934;51.532;7.684;2023-01-29T12:06:27;101396.66;;;1.10;78.11
70468;BME280;57934;51.532;7.684;2023-01-29T12:09:00;101386.69;;;1.17;77.82
70468;BME280;57934;51.532;7.684;2023-01-29T12:11:32;101382.44;;;1.16;77.33
70468;BME280;57934;51.532;7.684;2023-01-29T12:14:00;101381.91;;;1.11;77.90
70468;BME280;57934;51.532;7.684;2023-01-29T12:16:36;101374.66;;;1.03;78.30
70468;BME280;57934;51.532;7.684;2023-01-29T12:19:11;101373.91;;;1.01;78.37
70468;BME280;57934;51.532;7.684;2023-01-29T12:21:45;101366.03;;;1.03;78.37
70468;BME280;57934;51.532;7.684;2023-01-29T12:27:00;101344.94;;;1.07;78.56
70468;BME280;57934;51.532;7.684;2023-01-29T12:35:18;101326.22;;;1.15;78.55
70468;BME280;57934;51.532;7.684;2023-01-29T12:40:38;101302.13;;;1.13;78.11
70468;BME280;57934;51.532;7.684;2023-01-29T12:43:17;101296.63;;;1.17;77.90
70468;BME280;57934;51.532;7.684;2023-01-29T12:45:47;101295.56;;;1.20;77.77
70468;BME280;57934;51.532;7.684;2023-01-29T12:48:26;101293.28;;;1.15;78.11
70468;BME280;57934;51.532;7.684;2023-01-29T12:51:02;101290.59;;;1.17;78.09
70468;BME280;57934;51.532;7.684;2023-01-29T12:53:34;101286.97;;;1.19;78.28
70468;BME280;57934;51.532;7.684;2023-01-29T12:56:08;101277.06;;;1.25;78.28
70468;BME280;57934;51.532;7.684;2023-01-29T12:58:42;101273.91;;;1.32;77.90
70468;BME280;57934;51.532;7.684;2023-01-29T13:01:22;101270.00;;;1.27;77.65
70468;BME280;57934;51.532;7.684;2023-01-29T13:04:10;101265.88;;;1.11;77.89
70468;BME280;57934;51.532;7.684;2023-01-29T13:06:41;101270.34;;;1.09;78.53
70468;BME280;57934;51.532;7.684;2023-01-29T13:09:16;101273.16;;;1.06;78.58
70468;BME280;57934;51.532;7.684;2023-01-29T13:11:55;101262.66;;;1.08;78.54
70468;BME280;57934;51.532;7.684;2023-01-29T13:14:44;101257.38;;;1.09;78.79
70468;BME280;57934;51.532;7.684;2023-01-29T13:17:18;101261.72;;;1.09;78.71
70468;BME280;57934;51.532;7.684;2023-01-29T13:19:53;101260.19;;;1.06;78.78
70468;BME280;57934;51.532;7.684;2023-01-29T13:22:24;101264.94;;;1.12;78.60
70468;BME280;57934;51.532;7.684;2023-01-29T13:24:52;101267.09;;;1.18;78.70
70468;BME280;57934;51.532;7.684;2023-01-29T13:27:21;101284.78;;;1.13;78.67
70468;BME280;57934;51.532;7.684;2023-01-29T13:29:48;101274.19;;;1.16;79.00
70468;BME280;57934;51.532;7.684;2023-01-29T13:32:20;101272.81;;;1.24;78.62
70468;BME280;57934;51.532;7.684;2023-01-29T13:34:48;101272.59;;;1.27;78.10
70468;BME280;57934;51.532;7.684;2023-01-29T13:37:40;101268.66;;;1.21;78.36
70468;BME280;57934;51.532;7.684;2023-01-29T13:40:05;101269.81;;;1.17;78.52
70468;BME280;57934;51.532;7.684;2023-01-29T13:42:46;101268.78;;;1.19;78.57
70468;BME280;57934;51.532;7.684;2023-01-29T13:45:21;101270.31;;;1.22;78.70
70468;BME280;57934;51.532;7.684;2023-01-29T13:47:50;101262.69;;;1.32;78.01
70468;BME280;57934;51.532;7.684;2023-01-29T13:50:36;101266.88;;;1.22;77.54
70468;BME280;57934;51.532;7.684;2023-01-29T13:53:04;101264.41;;;1.20;77.91
70468;BME280;57934;51.532;7.684;2023-01-29T13:55:34;101266.88;;;1.22;78.01
70468;BME280;57934;51.532;7.684;2023-01-29T13:58:05;101270.72;;;1.29;78.39
70468;BME280;57934;51.532;7.684;2023-01-29T14:08:51;101257.31;;;1.22;78.18
70468;BME280;57934;51.532;7.684;2023-01-29T14:11:27;101254.50;;;1.25;78.77
70468;BME280;57934;51.532;7.684;2023-01-29T14:13:57;101254.63;;;1.24;78.56
70468;BME280;57934;51.532;7.684;2023-01-29T14:18:56;101253.06;;;1.21;78.52
70468;BME280;57934;51.532;7.684;2023-01-29T14:21:25;101248.91;;;1.18;78.55
70468;BME280;57934;51.532;7.684;2023-01-29T14:24:08;101249.66;;;1.21;79.02
70468;BME280;57934;51.532;7.684;2023-01-29T14:31:49;101243.63;;;1.20;78.58
70468;BME280;57934;51.532;7.684;2023-01-29T14:34:20;101255.06;;;1.17;78.75
70468;BME280;57934;51.532;7.684;2023-01-29T14:36:48;101247.06;;;1.21;78.62
70468;BME280;57934;51.532;7.684;2023-01-29T14:39:28;101242.56;;;1.23;78.66
70468;BME280;57934;51.532;7.684;2023-01-29T14:41:56;101241.72;;;1.22;78.72